Time;durP1;ratioP1;P1;durP2;ratioP2;P2;SDS_P1;SDS_P2;PMS_P1;PMS_P2;Temp;Humidity;BMP_temperature;BMP_pressure;BME280_temperature;BME280_humidity;BME280_pressure;Samples;Min_cycle;Max_cycle;Signal;HPM_P1;HPM_P2
2021/06/04 00:00:34;;;;;;;7.60;7.00;;;;;;;15.96;76.81;98437.47;5095782;28;20202;-71
2021/06/04 00:03:06;;;;;;;7.40;6.90;;;;;;;16.12;75.99;98433.75;5099666;28;20209;-70
2021/06/04 00:05:37;;;;;;;7.20;6.70;;;;;;;15.97;76.33;98433.78;5100384;28;20222;-70
2021/06/04 00:08:05;;;;;;;7.37;6.67;;;;;;;15.93;76.39;98447.72;5100256;28;20204;-71
2021/06/04 00:10:36;;;;;;;7.00;6.60;;;;;;;15.84;77.01;98441.59;5100236;28;20217;-72
2021/06/04 00:13:20;;;;;;;7.70;7.13;;;;;;;15.78;77.04;98441.34;5096825;28;20208;-71
2021/06/04 00:15:50;;;;;;;7.57;6.77;;;;;;;15.84;76.98;98445.13;5098725;28;20217;-71
2021/06/04 00:18:18;;;;;;;6.73;6.33;;;;;;;15.95;76.62;98438.50;5098160;28;20704;-70
2021/06/04 00:20:46;;;;;;;7.03;6.10;;;;;;;15.82;77.19;98448.97;5098700;28;20198;-70
2021/06/04 00:23:13;;;;;;;7.23;6.80;;;;;;;15.91;76.61;98443.38;5098105;28;20641;-69
2021/06/04 00:25:44;;;;;;;6.80;6.40;;;;;;;15.96;76.65;98445.50;5097540;28;20648;-72
2021/06/04 00:28:15;;;;;;;7.47;6.97;;;;;;;15.87;77.42;98441.22;5097801;28;20210;-73
2021/06/04 00:30:42;;;;;;;6.80;6.30;;;;;;;15.91;77.08;98439.91;5101159;28;20681;-72
2021/06/04 00:33:11;;;;;;;6.97;6.50;;;;;;;16.07;76.16;98441.50;5094945;28;20206;-71
2021/06/04 00:35:40;;;;;;;6.77;6.30;;;;;;;16.19;75.42;98436.47;5098625;28;20686;-71
2021/06/04 00:38:09;;;;;;;7.30;6.80;;;;;;;15.94;76.96;98434.16;5100460;28;20206;-71
2021/06/04 00:40:40;;;;;;;7.60;6.97;;;;;;;15.89;77.16;98441.91;5100922;28;20209;-71
2021/06/04 00:43:08;;;;;;;7.23;6.73;;;;;;;15.84;77.62;98442.44;5099156;28;20236;-69
2021/06/04 00:45:39;;;;;;;7.00;6.50;;;;;;;15.92;76.54;98436.19;5098580;27;20225;-70
2021/06/04 00:48:07;;;;;;;7.17;6.47;;;;;;;15.97;76.32;98436.47;5100227;28;20741;-70
2021/06/04 00:50:39;;;;;;;7.67;7.27;;;;;;;16.10;75.99;98434.94;5101133;28;20288;-71
2021/06/04 00:53:07;;;;;;;7.17;6.67;;;;;;;16.06;76.17;98437.16;5097228;28;20237;-71
2021/06/04 00:55:35;;;;;;;7.20;6.60;;;;;;;15.97;76.92;98436.47;5100539;28;20225;-71
2021/06/04 00:58:04;;;;;;;7.37;6.97;;;;;;;15.75;78.69;98441.72;5097552;28;20212;-71
2021/06/04 01:00:35;;;;;;;7.77;7.27;;;;;;;15.74;78.82;98439.25;5098266;28;20226;-72
2021/06/04 01:03:03;;;;;;;7.37;6.80;;;;;;;15.71;78.50;98432.41;5097308;28;20205;-71
2021/06/04 01:05:31;;;;;;;6.73;6.23;;;;;;;15.71;78.47;98436.91;5099674;28;20225;-71
2021/06/04 01:08:13;;;;;;;7.80;7.30;;;;;;;15.70;78.23;98437.94;5100454;28;20688;-73
2021/06/04 01:10:52;;;;;;;8.00;7.50;;;;;;;15.53;79.14;98440.81;5098639;28;20674;-72
2021/06/04 01:13:23;;;;;;;7.80;7.33;;;;;;;15.62;78.89;98447.72;5098631;28;20205;-71
2021/06/04 01:16:03;;;;;;;8.13;7.63;;;;;;;15.66;78.76;98439.31;5098303;28;20248;-73
2021/06/04 01:18:41;;;;;;;8.17;7.63;;;;;;;15.65;78.64;98446.53;5095932;28;20205;-70
2021/06/04 01:21:11;;;;;;;8.03;7.53;;;;;;;15.63;79.34;98441.34;5095457;28;20201;-68
2021/06/04 01:24:02;;;;;;;8.40;7.80;;;;;;;15.52;80.75;98435.66;5096842;28;20201;-72
2021/06/04 01:26:35;;;;;;;7.73;7.13;;;;;;;15.53;80.39;98438.16;5099608;28;20431;-72
2021/06/04 01:29:06;;;;;;;8.17;7.37;;;;;;;15.68;78.76;98440.81;5096529;28;20592;-73
2021/06/04 01:31:39;;;;;;;8.50;8.00;;;;;;;15.88;77.10;98451.78;5100124;28;20356;-71
2021/06/04 01:34:10;;;;;;;8.20;7.67;;;;;;;15.99;76.38;98463.84;5095731;28;20528;-72
2021/06/04 01:36:40;;;;;;;8.40;7.60;;;;;;;15.88;76.97;98458.94;5099563;28;20197;-70
2021/06/04 01:39:13;;;;;;;8.17;7.57;;;;;;;15.96;75.66;98466.03;5098713;28;20206;-72
2021/06/04 01:41:44;;;;;;;8.83;8.10;;;;;;;15.74;76.86;98461.44;5097248;28;20201;-70
2021/06/04 01:44:17;;;;;;;8.73;7.67;;;;;;;15.76;77.77;98459.41;5100309;28;20454;-70
2021/06/04 01:46:48;;;;;;;7.70;7.03;;;;;;;16.04;76.09;98458.75;5097542;28;20201;-73
2021/06/04 01:49:19;;;;;;;9.40;8.53;;;;;;;15.85;77.00;98459.28;5096626;28;20197;-71
2021/06/04 01:51:49;;;;;;;8.37;7.70;;;;;;;15.95;76.29;98461.72;5098369;28;20210;-73
2021/06/04 01:54:32;;;;;;;8.17;7.67;;;;;;;15.96;75.74;98463.38;5099573;28;20221;-73
2021/06/04 01:57:07;;;;;;;7.67;7.27;;;;;;;16.02;75.65;98474.16;5097885;28;20213;-71
2021/06/04 01:59:37;;;;;;;9.10;8.27;;;;;;;15.96;75.67;98472.22;5097569;28;20197;-73
2021/06/04 02:02:05;;;;;;;8.17;7.67;;;;;;;15.93;76.21;98472.59;5098076;28;20202;-70
2021/06/04 02:04:36;;;;;;;7.77;7.23;;;;;;;15.76;77.07;98466.59;5100131;28;20226;-72
2021/06/04 02:07:05;;;;;;;8.03;7.43;;;;;;;15.74;77.38;98461.44;5100081;28;20209;-71
2021/06/04 02:09:33;;;;;;;7.77;7.27;;;;;;;15.72;77.41;98455.44;5099650;28;20209;-70
2021/06/04 02:12:03;;;;;;;7.77;7.17;;;;;;;15.71;77.12;98458.28;5097699;28;20208;-71
2021/06/04 02:14:34;;;;;;;7.73;7.23;;;;;;;15.67;77.04;98459.69;5093542;28;20233;-70
2021/06/04 02:17:18;;;;;;;7.83;7.23;;;;;;;15.68;77.01;98456.00;5096967;28;20235;-71
2021/06/04 02:19:55;;;;;;;6.67;6.27;;;;;;;15.82;74.66;98451.66;5094967;28;20204;-70
2021/06/04 02:22:26;;;;;;;8.63;8.03;;;;;;;15.77;75.89;98449.56;5097486;28;20201;-72
2021/06/04 02:25:00;;;;;;;7.83;7.23;;;;;;;15.80;74.69;98453.69;5093620;28;20236;-70
2021/06/04 02:27:33;;;;;;;7.70;7.00;;;;;;;15.80;73.42;98451.84;5097624;28;20202;-69
2021/06/04 02:30:04;;;;;;;6.67;6.17;;;;;;;15.72;73.39;98450.09;5098001;28;20198;-70
2021/06/04 02:32:37;;;;;;;7.80;7.10;;;;;;;15.61;73.27;98453.25;5103129;28;20255;-72
2021/06/04 02:35:10;;;;;;;6.90;6.50;;;;;;;15.76;71.96;98455.91;5103925;28;20224;-71
2021/06/04 02:37:44;;;;;;;6.73;6.30;;;;;;;15.76;71.25;98451.38;5102995;28;20197;-71
2021/06/04 02:40:19;;;;;;;6.37;5.90;;;;;;;15.73;71.50;98459.78;5102764;27;20209;-71
2021/06/04 02:42:54;;;;;;;6.67;6.27;;;;;;;15.57;71.60;98458.13;5102959;28;20201;-73
2021/06/04 02:45:27;;;;;;;5.70;5.30;;;;;;;15.56;70.13;98461.81;5099765;28;20326;-70
2021/06/04 02:47:58;;;;;;;6.10;5.67;;;;;;;15.70;69.44;98459.31;5100308;28;20292;-70
2021/06/04 02:50:29;;;;;;;5.93;5.43;;;;;;;15.89;68.16;98463.28;5101659;28;20731;-71
2021/06/04 02:53:20;;;;;;;5.93;5.53;;;;;;;15.84;67.49;98455.81;5101161;28;20558;-71
2021/06/04 02:56:13;;;;;;;5.83;5.33;;;;;;;15.59;69.10;98450.75;5101166;27;20222;-71
2021/06/04 02:58:44;;;;;;;5.67;5.27;;;;;;;15.57;69.17;98451.97;5100891;28;20715;-69
2021/06/04 03:01:12;;;;;;;5.20;4.90;;;;;;;15.61;68.25;98454.06;5102920;28;20203;-72
2021/06/04 03:03:42;;;;;;;8.93;5.03;;;;;;;15.68;66.85;98451.50;5100102;28;20205;-72
2021/06/04 03:06:10;;;;;;;5.67;5.10;;;;;;;15.59;67.53;98452.63;5100177;28;20226;-69
2021/06/04 03:08:37;;;;;;;5.27;4.83;;;;;;;15.72;66.22;98457.28;5100409;28;20255;-70
2021/06/04 03:11:07;;;;;;;4.90;4.57;;;;;;;15.91;64.63;98454.06;5098846;28;20638;-71
2021/06/04 03:13:36;;;;;;;4.73;4.53;;;;;;;15.92;65.26;98457.59;5096917;28;20198;-70
2021/06/04 03:16:08;;;;;;;5.67;5.03;;;;;;;15.93;65.85;98461.06;5096571;27;20205;-71
2021/06/04 03:18:38;;;;;;;4.60;4.30;;;;;;;15.94;65.10;98457.38;5099490;28;20231;-70
2021/06/04 03:21:09;;;;;;;5.13;4.83;;;;;;;15.99;63.83;98452.28;5101247;28;20396;-71
2021/06/04 03:23:36;;;;;;;4.90;4.60;;;;;;;15.94;63.87;98452.88;5098068;28;20222;-71
2021/06/04 03:26:08;;;;;;;5.33;5.03;;;;;;;15.90;63.97;98448.91;5099534;28;20225;-71
2021/06/04 03:28:38;;;;;;;4.93;4.53;;;;;;;15.87;64.65;98451.91;5099735;27;20205;-71
2021/06/04 03:31:10;;;;;;;4.70;4.40;;;;;;;16.06;62.95;98455.88;5096063;28;20206;-71
2021/06/04 03:33:39;;;;;;;5.13;4.83;;;;;;;15.93;63.29;98463.75;5097408;28;20237;-70
2021/06/04 03:36:11;;;;;;;5.20;4.77;;;;;;;16.05;62.84;98456.88;5101730;28;20767;-70
2021/06/04 03:38:39;;;;;;;4.70;4.40;;;;;;;15.99;63.49;98455.81;5101552;28;20576;-71
2021/06/04 03:41:08;;;;;;;4.47;4.07;;;;;;;15.96;62.62;98458.88;5101209;28;20443;-71
2021/06/04 03:43:36;;;;;;;4.20;3.97;;;;;;;15.94;62.80;98460.06;5101901;28;20202;-72
2021/06/04 03:46:03;;;;;;;5.07;4.70;;;;;;;16.13;61.45;98466.66;5101272;28;20218;-71
2021/06/04 03:48:35;;;;;;;4.33;4.03;;;;;;;16.11;61.56;98458.00;5095849;28;20207;-72
2021/06/04 03:51:09;;;;;;;4.73;4.43;;;;;;;16.14;61.75;98461.13;5093835;27;20436;-73
2021/06/04 03:53:37;;;;;;;4.63;4.23;;;;;;;16.13;62.16;98456.81;5096488;28;20205;-71
2021/06/04 03:56:07;;;;;;;4.93;4.53;;;;;;;15.99;63.60;98474.53;5094682;28;20202;-71
2021/06/04 03:58:35;;;;;;;4.70;4.17;;;;;;;16.07;63.47;98470.91;5099638;28;20205;-72
2021/06/04 04:01:07;;;;;;;4.50;4.20;;;;;;;16.26;62.20;98461.44;5101427;28;20219;-72
2021/06/04 04:03:36;;;;;;;5.37;4.97;;;;;;;16.20;62.65;98465.72;5098580;28;20202;-70
2021/06/04 04:06:04;;;;;;;6.10;4.57;;;;;;;16.15;63.57;98473.47;5100175;28;20253;-72
2021/06/04 04:08:32;;;;;;;4.77;4.47;;;;;;;16.17;62.63;98470.59;5099053;28;20701;-72
2021/06/04 04:11:04;;;;;;;4.63;4.33;;;;;;;16.39;61.52;98471.44;5093941;28;20459;-71
2021/06/04 04:13:32;;;;;;;4.67;4.40;;;;;;;16.35;61.84;98467.50;5100841;28;20216;-69
2021/06/04 04:16:00;;;;;;;5.30;4.90;;;;;;;16.43;62.31;98478.06;5098490;28;20217;-72
2021/06/04 04:18:28;;;;;;;5.00;4.70;;;;;;;16.41;61.91;98474.75;5101153;28;20211;-72
2021/06/04 04:20:58;;;;;;;5.10;4.70;;;;;;;16.51;61.50;98471.78;5092691;28;20206;-72
2021/06/04 04:23:29;;;;;;;4.73;4.33;;;;;;;16.47;62.13;98474.00;5098500;27;20193;-71
2021/06/04 04:25:58;;;;;;;4.73;4.33;;;;;;;16.46;62.29;98477.69;5099244;28;20221;-71
2021/06/04 04:28:29;;;;;;;4.47;4.20;;;;;;;16.51;61.79;98479.00;5095234;28;20209;-72
2021/06/04 04:30:57;;;;;;;5.00;4.57;;;;;;;16.54;61.02;98476.75;5097695;28;20578;-72
2021/06/04 04:33:26;;;;;;;4.87;4.57;;;;;;;16.63;60.20;98474.78;5101613;28;20205;-72
2021/06/04 04:35:54;;;;;;;4.50;4.30;;;;;;;16.58;60.43;98474.53;5096701;28;20225;-71
2021/06/04 04:38:23;;;;;;;4.70;4.30;;;;;;;16.49;61.25;98473.81;5100458;28;20209;-72
2021/06/04 04:40:58;;;;;;;4.77;3.90;;;;;;;16.43;62.40;98469.25;5096899;28;20206;-70
2021/06/04 04:43:26;;;;;;;5.13;4.63;;;;;;;16.43;62.90;98475.41;5098871;27;20494;-70
2021/06/04 04:45:53;;;;;;;4.87;4.57;;;;;;;16.68;60.89;98483.06;5095211;28;20226;-70
2021/06/04 04:48:21;;;;;;;4.93;4.53;;;;;;;16.62;61.33;98479.28;5090035;28;20201;-72
2021/06/04 04:50:49;;;;;;;4.37;4.03;;;;;;;16.71;61.27;98490.69;5090343;28;20498;-71
2021/06/04 04:53:17;;;;;;;4.90;4.60;;;;;;;16.75;61.33;98483.94;5093500;28;20221;-70
2021/06/04 04:55:46;;;;;;;4.93;4.47;;;;;;;16.67;61.99;98489.44;5096957;28;20226;-70
2021/06/04 04:58:16;;;;;;;4.17;3.93;;;;;;;16.60;62.89;98496.56;5090357;28;20717;-71
2021/06/04 05:00:44;;;;;;;4.97;4.57;;;;;;;16.83;61.67;98498.22;5092067;28;20212;-71
2021/06/04 05:03:17;;;;;;;5.30;4.80;;;;;;;17.02;60.78;98499.44;5097085;27;20205;-70
2021/06/04 05:05:44;;;;;;;4.97;4.67;;;;;;;16.82;62.31;98494.72;5097748;28;20235;-70
2021/06/04 05:08:12;;;;;;;5.47;5.17;;;;;;;16.75;62.93;98488.47;5092512;28;20462;-69
2021/06/04 05:10:39;;;;;;;5.73;5.23;;;;;;;16.79;63.09;98487.06;5099128;28;20210;-69
2021/06/04 05:13:09;;;;;;;5.03;4.73;;;;;;;16.75;63.50;98485.81;5077253;28;20217;-69
2021/06/04 05:15:38;;;;;;;5.13;4.70;;;;;;;16.73;63.64;98482.50;5093790;28;20252;-70
2021/06/04 05:18:07;;;;;;;5.40;5.03;;;;;;;16.77;63.86;98489.94;5097717;28;20208;-69
2021/06/04 05:20:35;;;;;;;5.27;4.83;;;;;;;16.82;63.46;98485.84;5097254;27;20193;-69
2021/06/04 05:23:04;;;;;;;4.87;4.47;;;;;;;16.86;63.11;98489.81;5097542;28;20209;-70
2021/06/04 05:25:33;;;;;;;5.33;4.90;;;;;;;16.80;63.32;98488.72;5098644;28;20477;-70
2021/06/04 05:28:01;;;;;;;6.13;5.40;;;;;;;16.87;63.56;98494.97;5094248;28;20688;-70
2021/06/04 05:30:35;;;;;;;5.17;4.53;;;;;;;16.90;62.71;98483.06;5097278;28;20210;-70
2021/06/04 05:33:03;;;;;;;5.17;4.77;;;;;;;16.94;63.47;98495.03;5097605;28;20198;-70
2021/06/04 05:35:31;;;;;;;5.37;4.97;;;;;;;17.17;62.56;98494.00;5099000;28;20320;-70
2021/06/04 05:37:59;;;;;;;5.20;4.80;;;;;;;17.20;62.22;98496.28;5102869;28;20209;-70
2021/06/04 05:40:28;;;;;;;4.90;4.60;;;;;;;17.19;62.74;98500.81;5097276;28;20204;-70
2021/06/04 05:42:56;;;;;;;6.07;4.97;;;;;;;17.28;61.95;98498.84;5093979;28;20298;-70
2021/06/04 05:45:30;;;;;;;4.70;4.40;;;;;;;17.39;61.52;98505.47;5101391;28;20286;-69
2021/06/04 05:47:59;;;;;;;4.47;4.27;;;;;;;17.46;61.17;98502.84;5096034;28;20197;-70
2021/06/04 05:50:31;;;;;;;10.90;5.53;;;;;;;17.53;60.79;98508.28;5101575;28;20205;-70
2021/06/04 05:52:58;;;;;;;4.77;4.47;;;;;;;17.68;60.10;98506.28;5099297;28;20197;-70
2021/06/04 05:55:28;;;;;;;5.03;4.57;;;;;;;17.67;60.16;98510.00;5098721;28;20308;-70
2021/06/04 05:57:55;;;;;;;4.90;4.13;;;;;;;17.76;60.04;98508.78;5099314;28;20202;-70
2021/06/04 06:00:26;;;;;;;4.73;4.43;;;;;;;17.89;59.85;98515.28;5098747;28;20205;-70
2021/06/04 06:02:55;;;;;;;5.00;4.60;;;;;;;18.22;58.24;98517.31;5102039;28;21176;-70
2021/06/04 06:05:25;;;;;;;4.53;4.23;;;;;;;18.21;58.61;98515.66;5104314;28;20660;-71
2021/06/04 06:07:53;;;;;;;5.00;4.60;;;;;;;18.18;59.66;98516.88;5098506;28;20276;-70
2021/06/04 06:10:22;;;;;;;7.60;5.20;;;;;;;18.07;60.29;98514.78;5100885;28;20212;-70
2021/06/04 06:12:50;;;;;;;5.13;4.63;;;;;;;18.28;57.70;98518.34;5103724;28;20511;-70
2021/06/04 06:15:19;;;;;;;5.00;4.40;;;;;;;18.37;57.61;98520.66;5100920;28;20733;-70
2021/06/04 06:17:50;;;;;;;4.37;4.17;;;;;;;18.47;56.55;98527.47;5100911;28;20194;-70
2021/06/04 06:20:21;;;;;;;4.00;3.80;;;;;;;18.59;58.60;98522.34;5099995;28;20767;-69
2021/06/04 06:22:51;;;;;;;5.00;4.67;;;;;;;18.65;57.02;98524.22;5102092;28;20208;-70
2021/06/04 06:25:23;;;;;;;4.63;4.33;;;;;;;18.54;57.61;98531.00;5101701;28;20460;-70
2021/06/04 06:27:50;;;;;;;4.83;4.43;;;;;;;18.50;57.33;98535.13;5097799;28;20208;-69
2021/06/04 06:30:22;;;;;;;4.97;4.57;;;;;;;18.52;58.89;98533.06;5100902;28;20193;-70
2021/06/04 06:32:50;;;;;;;5.07;4.33;;;;;;;18.70;57.86;98529.81;5096377;28;20206;-69
2021/06/04 06:35:24;;;;;;;4.17;3.97;;;;;;;18.66;57.88;98532.09;5098659;28;20636;-70
2021/06/04 06:37:52;;;;;;;5.37;4.20;;;;;;;18.88;58.43;98525.72;5100417;28;20207;-70
2021/06/04 06:40:20;;;;;;;4.63;4.33;;;;;;;18.91;57.99;98531.47;5100684;28;20580;-70
2021/06/04 06:42:48;;;;;;;4.47;4.07;;;;;;;18.97;57.59;98543.28;5102137;28;20652;-68
2021/06/04 06:45:16;;;;;;;5.07;4.07;;;;;;;19.16;57.51;98535.47;5099445;28;20721;-70
2021/06/04 06:47:44;;;;;;;4.00;3.80;;;;;;;19.31;57.23;98535.25;5103495;28;20290;-70
2021/06/04 06:50:12;;;;;;;6.17;3.83;;;;;;;19.44;54.92;98537.94;5100068;28;20428;-69
2021/06/04 06:52:40;;;;;;;4.63;4.30;;;;;;;19.52;55.48;98545.78;5095486;28;20684;-70
2021/06/04 06:55:10;;;;;;;4.40;4.00;;;;;;;19.48;55.17;98543.72;5100626;28;20313;-69
2021/06/04 06:57:38;;;;;;;4.30;4.00;;;;;;;19.57;55.32;98549.69;5099699;28;20198;-69
2021/06/04 07:00:09;;;;;;;4.67;4.20;;;;;;;19.72;54.35;98552.16;5095832;28;20205;-69
2021/06/04 07:02:36;;;;;;;3.90;3.70;;;;;;;19.70;55.24;98555.06;5101061;28;20677;-70
2021/06/04 07:05:05;;;;;;;4.70;4.30;;;;;;;19.99;54.03;98550.25;5098070;28;20232;-70
2021/06/04 07:07:33;;;;;;;3.73;3.50;;;;;;;19.96;54.88;98545.31;5100789;28;20240;-70
2021/06/04 07:10:01;;;;;;;4.83;4.13;;;;;;;20.28;53.67;98544.59;5097571;28;20202;-69
2021/06/04 07:12:30;;;;;;;4.33;3.93;;;;;;;20.11;52.81;98550.44;5096597;28;20202;-69
2021/06/04 07:14:57;;;;;;;4.53;4.03;;;;;;;20.45;50.21;98556.50;5098450;28;20320;-70
2021/06/04 07:17:26;;;;;;;7.40;4.47;;;;;;;20.78;49.26;98560.03;5100339;28;20193;-69
2021/06/04 07:19:54;;;;;;;4.30;4.10;;;;;;;20.89;50.17;98555.88;5099653;28;20198;-70
2021/06/04 07:22:21;;;;;;;8.63;5.50;;;;;;;20.72;50.49;98559.06;5092682;28;20206;-72
2021/06/04 07:24:49;;;;;;;6.77;4.13;;;;;;;20.56;51.17;98557.69;5099475;28;20601;-70
2021/06/04 07:27:18;;;;;;;7.00;4.37;;;;;;;20.70;50.24;98553.06;5094924;27;20221;-73
2021/06/04 07:29:47;;;;;;;7.07;4.73;;;;;;;20.98;49.67;98556.44;5100162;28;20208;-72
2021/06/04 07:32:15;;;;;;;5.87;4.40;;;;;;;21.06;48.84;98562.41;5097489;28;20212;-72
2021/06/04 07:34:42;;;;;;;5.53;4.07;;;;;;;21.20;48.60;98565.78;5099974;28;20253;-72
2021/06/04 07:37:10;;;;;;;4.90;4.47;;;;;;;21.21;49.25;98572.03;5101083;28;20585;-71
2021/06/04 07:39:38;;;;;;;4.03;3.67;;;;;;;21.10;49.55;98577.06;5097170;28;20198;-73
2021/06/04 07:42:07;;;;;;;4.13;3.87;;;;;;;20.91;49.41;98569.94;5096731;28;20687;-73
2021/06/04 07:44:35;;;;;;;4.40;4.00;;;;;;;20.86;49.87;98578.69;5099743;28;20238;-75
2021/06/04 07:47:04;;;;;;;5.20;3.30;;;;;;;20.88;49.09;98587.38;5100439;28;20720;-74
2021/06/04 07:49:32;;;;;;;4.23;3.83;;;;;;;20.74;49.07;98583.06;5101737;28;20291;-73
2021/06/04 07:52:00;;;;;;;6.63;4.13;;;;;;;20.74;49.58;98589.28;5097151;28;20205;-74
2021/06/04 07:54:30;;;;;;;4.57;4.27;;;;;;;20.74;49.49;98583.06;5098678;28;20625;-72
2021/06/04 07:56:58;;;;;;;4.50;4.20;;;;;;;20.72;49.59;98577.91;5096387;28;20200;-73
2021/06/04 07:59:25;;;;;;;8.13;4.47;;;;;;;21.00;48.71;98578.59;5099889;28;20213;-73
2021/06/04 08:01:53;;;;;;;4.93;4.10;;;;;;;20.95;49.29;98579.25;5096715;28;20206;-71
2021/06/04 08:04:22;;;;;;;4.37;3.97;;;;;;;20.84;49.56;98574.56;5095747;27;20218;-71
2021/06/04 08:06:51;;;;;;;4.10;3.80;;;;;;;20.85;49.01;98573.50;5094956;28;20221;-72
2021/06/04 08:09:19;;;;;;;7.27;4.40;;;;;;;20.93;49.08;98574.09;5097543;28;20212;-72
2021/06/04 08:11:52;;;;;;;4.33;4.03;;;;;;;21.06;48.86;98564.25;5094806;28;20204;-71
2021/06/04 08:14:22;;;;;;;5.63;4.10;;;;;;;21.20;48.42;98573.06;5097249;28;20805;-72
2021/06/04 08:16:50;;;;;;;4.77;4.37;;;;;;;21.18;48.64;98573.28;5100041;28;20238;-72
2021/06/04 08:19:18;;;;;;;4.03;3.63;;;;;;;21.35;48.32;98561.97;5098254;28;20205;-71
2021/06/04 08:21:49;;;;;;;5.17;4.47;;;;;;;21.63;48.29;98566.88;5099917;28;20197;-72
2021/06/04 08:24:20;;;;;;;7.27;3.80;;;;;;;21.63;47.62;98568.78;5093581;28;20233;-70
2021/06/04 08:26:48;;;;;;;4.57;4.10;;;;;;;21.77;47.33;98564.06;5096775;28;20588;-71
2021/06/04 08:29:16;;;;;;;5.13;4.03;;;;;;;21.91;47.39;98564.75;5096101;28;20206;-72
2021/06/04 08:31:44;;;;;;;6.63;4.10;;;;;;;22.14;46.67;98571.38;5099969;28;20254;-70
2021/06/04 08:34:13;;;;;;;5.07;4.10;;;;;;;22.07;47.21;98576.84;5098505;28;20226;-71
2021/06/04 08:36:43;;;;;;;4.80;4.50;;;;;;;22.36;46.69;98574.44;5099479;28;20234;-70
2021/06/04 08:39:15;;;;;;;4.17;3.73;;;;;;;22.29;46.63;98577.22;5094018;28;20210;-70
2021/06/04 08:41:49;;;;;;;4.60;4.23;;;;;;;22.27;46.80;98576.63;5098575;28;20262;-72
2021/06/04 08:44:35;;;;;;;4.30;4.00;;;;;;;22.22;46.64;98580.00;5096580;28;20217;-72
2021/06/04 08:47:04;;;;;;;6.07;4.03;;;;;;;22.54;45.39;98574.44;5093055;28;20222;-72
2021/06/04 08:49:41;;;;;;;5.07;4.57;;;;;;;22.70;46.29;98569.47;5098514;28;20516;-71
2021/06/04 08:52:18;;;;;;;3.83;3.53;;;;;;;23.18;44.43;98567.72;5093772;28;20198;-70
2021/06/04 08:54:55;;;;;;;4.13;3.77;;;;;;;23.26;44.37;98564.69;5096196;28;20763;-71
2021/06/04 08:57:33;;;;;;;4.77;4.33;;;;;;;23.62;43.54;98570.13;5095538;28;20877;-72
2021/06/04 09:00:05;;;;;;;3.90;3.60;;;;;;;23.67;43.03;98566.72;5095993;28;20598;-71
2021/06/04 09:02:36;;;;;;;4.43;4.10;;;;;;;23.95;41.33;98560.56;5096282;28;20593;-71
2021/06/04 09:05:08;;;;;;;5.90;4.03;;;;;;;24.04;42.19;98557.53;5092904;28;20224;-71
2021/06/04 09:07:38;;;;;;;4.20;3.80;;;;;;;24.12;41.38;98555.28;5089390;28;20222;-73
2021/06/04 09:10:11;;;;;;;4.63;4.23;;;;;;;24.01;41.79;98558.00;5090417;28;20236;-72
2021/06/04 09:12:43;;;;;;;4.23;3.80;;;;;;;24.09;41.91;98554.94;5096693;28;20416;-72
2021/06/04 09:15:12;;;;;;;6.83;4.60;;;;;;;24.55;40.60;98553.16;5095781;28;20232;-70
2021/06/04 09:17:46;;;;;;;4.17;3.90;;;;;;;24.38;41.56;98544.97;5098706;28;20226;-72
2021/06/04 09:20:16;;;;;;;5.23;4.07;;;;;;;24.55;40.55;98544.19;5099586;28;20201;-71
2021/06/04 09:22:45;;;;;;;6.13;4.90;;;;;;;24.56;40.53;98548.53;5098938;28;20197;-72
2021/06/04 09:25:18;;;;;;;9.47;5.10;;;;;;;25.00;39.98;98539.88;5099594;28;20499;-70
2021/06/04 09:27:49;;;;;;;6.70;5.30;;;;;;;25.07;40.01;98539.72;5094671;28;20727;-71
2021/06/04 09:30:21;;;;;;;5.63;3.90;;;;;;;25.26;38.48;98551.94;5096846;28;20207;-71
2021/06/04 09:33:08;;;;;;;4.57;3.47;;;;;;;25.65;38.66;98537.66;5099430;28;20219;-70
2021/06/04 09:35:37;;;;;;;9.30;4.47;;;;;;;25.76;38.47;98537.78;5095794;28;20221;-72
2021/06/04 09:38:10;;;;;;;4.53;4.10;;;;;;;26.00;36.17;98539.22;5098113;28;20274;-71
2021/06/04 09:40:40;;;;;;;4.17;3.87;;;;;;;26.02;37.25;98538.94;5102314;28;20226;-71
2021/06/04 09:43:15;;;;;;;4.73;4.33;;;;;;;26.15;37.99;98537.75;5102305;28;20429;-72
2021/06/04 09:45:55;;;;;;;4.97;4.17;;;;;;;26.09;37.95;98539.56;5101597;28;20218;-72
2021/06/04 09:48:53;;;;;;;4.50;4.13;;;;;;;25.95;37.11;98538.31;5101310;28;20304;-71
2021/06/04 09:51:25;;;;;;;4.27;3.87;;;;;;;25.67;38.03;98538.22;5100500;28;20201;-72
2021/06/04 09:53:53;;;;;;;6.90;4.10;;;;;;;26.15;36.28;98535.88;5101729;28;20202;-71
2021/06/04 09:56:30;;;;;;;4.00;3.60;;;;;;;26.36;36.12;98532.59;5100486;28;20202;-71
2021/06/04 09:58:59;;;;;;;4.50;4.13;;;;;;;26.26;36.63;98528.66;5102685;27;20201;-73
2021/06/04 10:01:29;;;;;;;4.93;3.63;;;;;;;26.79;34.92;98536.28;5100923;28;20211;-72
2021/06/04 10:04:00;;;;;;;3.70;3.40;;;;;;;27.34;33.09;98530.78;5100244;28;20306;-71
2021/06/04 10:06:35;;;;;;;7.10;4.00;;;;;;;26.70;33.46;98529.66;5101298;28;20293;-72
2021/06/04 10:09:12;;;;;;;3.70;3.50;;;;;;;26.84;34.37;98535.53;5097588;28;20320;-72
2021/06/04 10:11:51;;;;;;;3.57;3.37;;;;;;;27.13;32.04;98522.47;5099907;28;20205;-72
2021/06/04 10:14:24;;;;;;;3.83;3.10;;;;;;;27.02;33.29;98518.00;5102087;28;20286;-71
2021/06/04 10:17:03;;;;;;;4.10;3.43;;;;;;;27.11;33.56;98516.47;5098007;28;20198;-71
2021/06/04 10:19:35;;;;;;;3.37;3.07;;;;;;;27.33;32.65;98510.09;5102220;28;20206;-72
2021/06/04 10:22:17;;;;;;;3.70;3.50;;;;;;;27.23;32.14;98502.66;5098126;28;20539;-71
2021/06/04 10:24:48;;;;;;;3.13;2.93;;;;;;;27.29;31.67;98501.66;5102470;27;20255;-72
2021/06/04 10:27:20;;;;;;;3.07;2.70;;;;;;;27.27;29.93;98492.09;5099822;28;20237;-71
2021/06/04 10:30:01;;;;;;;3.43;3.13;;;;;;;27.91;28.52;98497.66;5097958;28;20224;-71
2021/06/04 10:32:32;;;;;;;3.30;3.10;;;;;;;27.08;32.29;98497.13;5101902;28;20201;-71
2021/06/04 10:35:08;;;;;;;3.37;3.17;;;;;;;27.24;31.18;98485.25;5101923;28;20229;-71
2021/06/04 10:37:39;;;;;;;3.70;3.40;;;;;;;27.52;30.65;98477.06;5101768;28;20196;-71
2021/06/04 10:40:16;;;;;;;2.07;1.97;;;;;;;27.79;25.78;98478.81;5099875;27;20208;-72
2021/06/04 10:43:15;;;;;;;2.97;2.77;;;;;;;27.91;26.37;98473.13;5102429;28;20284;-71
2021/06/04 10:45:48;;;;;;;2.93;2.73;;;;;;;28.53;27.52;98476.06;5071837;28;20823;-71
2021/06/04 10:48:32;;;;;;;3.03;2.83;;;;;;;28.63;27.47;98470.63;5100674;28;20605;-71
2021/06/04 10:51:06;;;;;;;3.67;3.33;;;;;;;28.85;27.62;98467.66;5098765;28;20209;-71
2021/06/04 10:53:40;;;;;;;4.83;2.83;;;;;;;28.38;28.08;98469.47;5102658;28;20204;-72
2021/06/04 10:56:11;;;;;;;3.07;2.83;;;;;;;28.96;26.94;98462.19;5103781;28;20363;-71
2021/06/04 10:58:47;;;;;;;3.50;3.30;;;;;;;29.94;26.00;98456.50;5098498;28;20675;-72
2021/06/04 11:01:16;;;;;;;3.63;2.93;;;;;;;28.74;26.62;98455.88;5099514;28;20212;-71
2021/06/04 11:03:51;;;;;;;3.83;2.80;;;;;;;28.71;26.76;98450.19;5101019;28;20205;-72
2021/06/04 11:06:22;;;;;;;3.00;2.80;;;;;;;28.86;26.40;98455.66;5098359;27;20678;-71
2021/06/04 11:08:55;;;;;;;3.33;3.03;;;;;;;28.34;27.25;98452.03;5100551;28;20618;-72
2021/06/04 11:11:39;;;;;;;2.90;2.53;;;;;;;29.06;25.22;98447.72;5097846;28;20200;-71
2021/06/04 11:14:48;;;;;;;2.83;2.63;;;;;;;29.81;23.71;98452.47;5101691;28;20239;-72
2021/06/04 11:17:27;;;;;;;2.70;2.60;;;;;;;29.85;25.35;98445.34;5086029;28;20586;-71
2021/06/04 11:20:03;;;;;;;3.17;2.47;;;;;;;30.46;23.73;98437.06;5093375;28;20316;-72
2021/06/04 11:22:42;;;;;;;2.83;2.40;;;;;;;30.01;23.81;98437.91;5102135;28;20216;-73
2021/06/04 11:25:21;;;;;;;2.37;2.13;;;;;;;30.58;21.46;98434.81;5100282;28;20253;-72
2021/06/04 11:27:53;;;;;;;2.60;2.30;;;;;;;29.79;20.33;98432.81;5101280;28;20410;-72
2021/06/04 11:30:22;;;;;;;2.63;1.93;;;;;;;29.98;22.09;98432.97;5098875;28;20244;-72
2021/06/04 11:33:00;;;;;;;2.03;1.93;;;;;;;29.79;22.49;98438.25;5099295;28;20223;-71
2021/06/04 11:35:30;;;;;;;2.70;2.60;;;;;;;30.10;22.34;98438.13;5098379;27;20755;-71
2021/06/04 11:38:00;;;;;;;2.67;2.47;;;;;;;29.59;25.13;98436.44;5102851;28;20289;-72
2021/06/04 11:40:32;;;;;;;2.30;2.20;;;;;;;29.40;23.61;98438.94;5098390;28;20204;-71
2021/06/04 11:43:05;;;;;;;2.50;2.30;;;;;;;28.51;25.83;98438.16;5098884;28;20216;-73
2021/06/04 11:45:34;;;;;;;2.63;2.53;;;;;;;28.40;25.08;98434.59;5100655;28;20227;-74
2021/06/04 11:48:37;;;;;;;2.07;1.97;;;;;;;28.89;23.59;98427.03;5100504;28;20371;-71
2021/06/04 11:51:28;;;;;;;2.80;2.60;;;;;;;28.65;25.95;98430.25;5090391;28;20205;-71
2021/06/04 11:53:58;;;;;;;2.67;2.57;;;;;;;28.60;24.82;98420.19;5099921;28;20206;-73